CheckWX is a tool to help pilots better visualize weather data.  It is not intended as a substitute for an official pre-flight weather briefing.

01:03:16 UTC

CYMU METAR
Umiujaq Airport
Umiujaq, Canada
Current

3 hours ago

CYMU 232200Z 17014KT 15SM DRSN FEW130 BKN300 BKN320 M18/M20 A3022 RMK AC2CS3CI1 RDG LENTICULARS IN LAYERS E LAST STFD OBS/NEXT 241300UTC SLP247
Observed
Feb-23 @ 22:00 UTC
Wind
  • 170° at 14 KTS
Visibility
15 SM
Flight Rules
VFR
Conditions
Low drifting Snow
Cloud Levels
  • Few at 13,000' AGL
  • Broken at 30,000' AGL
  • Broken at 32,000' AGL
Temperature
-18°C / -0°F
Dewpoint
-20°C / -4°F
Humidity
84%
Altimeter
30.22" Hg
Pressure
1024.7 hPa
Previous

4 hours ago

CYMU 232100Z 17013KT 15SM DRSN FEW100 BKN300 M18/M21 A3024 RMK AS1CS5 AS TR SLP252
Observed
Feb-23 @ 21:00 UTC
Wind
  • 170° at 13 KTS
Visibility
15 SM
Flight Rules
VFR
Conditions
Low drifting Snow
Cloud Levels
  • Few at 10,000' AGL
  • Broken at 30,000' AGL
Temperature
-18°C / -0°F
Dewpoint
-21°C / -6°F
Humidity
78%
Altimeter
30.24" Hg
Pressure
1025.2 hPa
Previous

5 hours ago

CYMU 232000Z 18011KT 15SM DRSN FEW100 BKN300 M19/M21 A3024 RMK AS1CS5 AS TR SLP254
Observed
Feb-23 @ 20:00 UTC
Wind
  • 180° at 11 KTS
Visibility
15 SM
Flight Rules
VFR
Conditions
Low drifting Snow
Cloud Levels
  • Few at 10,000' AGL
  • Broken at 30,000' AGL
Temperature
-19°C / -2°F
Dewpoint
-21°C / -6°F
Humidity
84%
Altimeter
30.24" Hg
Pressure
1025.4 hPa